sensor_id;sensor_type;location;lat;lon;timestamp;temperature;humidity
23713;DHT22;12035;49.978;8.298;2023-04-25T00:05:00;13.10;65.70
23713;DHT22;12035;49.978;8.298;2023-04-25T00:10:35;13.10;66.40
23713;DHT22;12035;49.978;8.298;2023-04-25T00:15:54;13.10;66.50
23713;DHT22;12035;49.978;8.298;2023-04-25T00:20:56;13.10;66.30
23713;DHT22;12035;49.978;8.298;2023-04-25T00:26:15;13.20;65.80
23713;DHT22;12035;49.978;8.298;2023-04-25T00:31:42;13.20;66.40
23713;DHT22;12035;49.978;8.298;2023-04-25T00:37:11;13.20;66.50
23713;DHT22;12035;49.978;8.298;2023-04-25T00:42:26;13.30;66.30
23713;DHT22;12035;49.978;8.298;2023-04-25T00:47:42;13.30;66.00
23713;DHT22;12035;49.978;8.298;2023-04-25T00:52:56;13.30;66.10
23713;DHT22;12035;49.978;8.298;2023-04-25T00:58:08;13.40;66.10
23713;DHT22;12035;49.978;8.298;2023-04-25T01:03:19;13.30;65.70
23713;DHT22;12035;49.978;8.298;2023-04-25T01:09:08;13.40;66.10
23713;DHT22;12035;49.978;8.298;2023-04-25T01:14:55;13.40;66.20
23713;DHT22;12035;49.978;8.298;2023-04-25T01:21:05;13.40;66.30
23713;DHT22;12035;49.978;8.298;2023-04-25T01:26:53;13.40;65.70
23713;DHT22;12035;49.978;8.298;2023-04-25T01:32:15;13.40;65.70
23713;DHT22;12035;49.978;8.298;2023-04-25T01:37:16;13.40;65.90
23713;DHT22;12035;49.978;8.298;2023-04-25T01:42:27;13.40;66.00
23713;DHT22;12035;49.978;8.298;2023-04-25T01:47:33;13.40;66.00
23713;DHT22;12035;49.978;8.298;2023-04-25T01:52:37;13.40;66.00
23713;DHT22;12035;49.978;8.298;2023-04-25T01:57:42;13.40;66.20
23713;DHT22;12035;49.978;8.298;2023-04-25T02:02:51;13.50;65.90
23713;DHT22;12035;49.978;8.298;2023-04-25T02:07:58;13.40;66.10
23713;DHT22;12035;49.978;8.298;2023-04-25T02:13:10;13.40;66.10
23713;DHT22;12035;49.978;8.298;2023-04-25T02:18:39;13.40;66.30
23713;DHT22;12035;49.978;8.298;2023-04-25T02:24:09;13.40;66.00
23713;DHT22;12035;49.978;8.298;2023-04-25T02:29:22;13.40;66.30
23713;DHT22;12035;49.978;8.298;2023-04-25T02:34:25;13.30;65.80
23713;DHT22;12035;49.978;8.298;2023-04-25T02:39:29;13.30;66.00
23713;DHT22;12035;49.978;8.298;2023-04-25T02:44:45;13.40;65.30
23713;DHT22;12035;49.978;8.298;2023-04-25T02:49:55;13.30;65.30
23713;DHT22;12035;49.978;8.298;2023-04-25T02:54:59;13.30;65.40
23713;DHT22;12035;49.978;8.298;2023-04-25T03:00:06;13.30;65.50
23713;DHT22;12035;49.978;8.298;2023-04-25T03:05:07;13.30;65.50
23713;DHT22;12035;49.978;8.298;2023-04-25T03:10:23;13.30;65.30
23713;DHT22;12035;49.978;8.298;2023-04-25T03:15:31;13.30;65.30
23713;DHT22;12035;49.978;8.298;2023-04-25T03:20:52;13.20;65.30
23713;DHT22;12035;49.978;8.298;2023-04-25T03:26:07;13.20;65.60
23713;DHT22;12035;49.978;8.298;2023-04-25T03:31:13;13.20;65.80
23713;DHT22;12035;49.978;8.298;2023-04-25T03:36:30;13.20;65.60
23713;DHT22;12035;49.978;8.298;2023-04-25T03:41:32;13.20;65.80
23713;DHT22;12035;49.978;8.298;2023-04-25T03:46:41;13.20;65.30
23713;DHT22;12035;49.978;8.298;2023-04-25T03:57:25;13.20;65.30
23713;DHT22;12035;49.978;8.298;2023-04-25T04:02:33;13.10;65.10
23713;DHT22;12035;49.978;8.298;2023-04-25T04:07:37;13.10;64.80
23713;DHT22;12035;49.978;8.298;2023-04-25T04:12:38;13.10;64.40
23713;DHT22;12035;49.978;8.298;2023-04-25T04:17:39;13.00;64.30
23713;DHT22;12035;49.978;8.298;2023-04-25T04:23:05;13.00;64.40
23713;DHT22;12035;49.978;8.298;2023-04-25T04:28:30;13.00;64.00
23713;DHT22;12035;49.978;8.298;2023-04-25T04:33:47;13.00;63.90
23713;DHT22;12035;49.978;8.298;2023-04-25T04:38:48;12.90;63.60
23713;DHT22;12035;49.978;8.298;2023-04-25T04:43:56;12.90;62.20
23713;DHT22;12035;49.978;8.298;2023-04-25T04:49:01;12.90;61.00
23713;DHT22;12035;49.978;8.298;2023-04-25T04:54:13;12.70;60.80
23713;DHT22;12035;49.978;8.298;2023-04-25T04:59:20;12.60;60.40
23713;DHT22;12035;49.978;8.298;2023-04-25T05:04:21;12.60;60.70
23713;DHT22;12035;49.978;8.298;2023-04-25T05:09:33;12.50;61.00
23713;DHT22;12035;49.978;8.298;2023-04-25T05:14:36;12.50;61.30
23713;DHT22;12035;49.978;8.298;2023-04-25T05:19:39;12.50;61.40
23713;DHT22;12035;49.978;8.298;2023-04-25T05:24:41;12.50;61.60
23713;DHT22;12035;49.978;8.298;2023-04-25T05:30:02;12.60;61.40
23713;DHT22;12035;49.978;8.298;2023-04-25T05:35:22;12.90;62.60
23713;DHT22;12035;49.978;8.298;2023-04-25T05:40:20;13.20;61.70
23713;DHT22;12035;49.978;8.298;2023-04-25T05:45:20;13.40;60.40
23713;DHT22;12035;49.978;8.298;2023-04-25T05:50:25;13.60;59.40
23713;DHT22;12035;49.978;8.298;2023-04-25T05:55:47;13.60;59.50
23713;DHT22;12035;49.978;8.298;2023-04-25T06:01:03;13.60;58.60
23713;DHT22;12035;49.978;8.298;2023-04-25T06:06:25;13.50;58.40
23713;DHT22;12035;49.978;8.298;2023-04-25T06:12:12;13.50;58.90
23713;DHT22;12035;49.978;8.298;2023-04-25T06:18:00;13.50;58.20
23713;DHT22;12035;49.978;8.298;2023-04-25T06:23:16;13.50;57.80
23713;DHT22;12035;49.978;8.298;2023-04-25T06:28:33;13.50;58.00
23713;DHT22;12035;49.978;8.298;2023-04-25T06:33:41;13.60;59.40
23713;DHT22;12035;49.978;8.298;2023-04-25T06:38:47;13.90;58.90
23713;DHT22;12035;49.978;8.298;2023-04-25T06:44:24;14.20;59.30
23713;DHT22;12035;49.978;8.298;2023-04-25T06:49:31;14.90;60.00
23713;DHT22;12035;49.978;8.298;2023-04-25T06:54:39;15.70;59.20
23713;DHT22;12035;49.978;8.298;2023-04-25T06:59:37;16.30;57.30
23713;DHT22;12035;49.978;8.298;2023-04-25T07:04:42;16.60;55.90
23713;DHT22;12035;49.978;8.298;2023-04-25T07:09:52;16.70;54.60
23713;DHT22;12035;49.978;8.298;2023-04-25T07:14:52;16.80;54.50
23713;DHT22;12035;49.978;8.298;2023-04-25T07:19:53;16.90;54.20
23713;DHT22;12035;49.978;8.298;2023-04-25T07:24:59;17.00;53.50
23713;DHT22;12035;49.978;8.298;2023-04-25T07:30:04;17.10;53.40
23713;DHT22;12035;49.978;8.298;2023-04-25T07:35:08;17.30;53.30
23713;DHT22;12035;49.978;8.298;2023-04-25T07:40:07;17.40;53.10
23713;DHT22;12035;49.978;8.298;2023-04-25T07:45:06;17.70;53.80
23713;DHT22;12035;49.978;8.298;2023-04-25T07:50:08;18.00;54.00
23713;DHT22;12035;49.978;8.298;2023-04-25T07:55:07;18.30;51.70
23713;DHT22;12035;49.978;8.298;2023-04-25T08:00:06;18.50;51.20
23713;DHT22;12035;49.978;8.298;2023-04-25T08:05:08;18.50;50.20
23713;DHT22;12035;49.978;8.298;2023-04-25T08:10:08;18.60;49.90
23713;DHT22;12035;49.978;8.298;2023-04-25T08:15:07;18.70;49.80
23713;DHT22;12035;49.978;8.298;2023-04-25T08:20:06;18.70;49.10
23713;DHT22;12035;49.978;8.298;2023-04-25T08:25:06;18.70;48.80
23713;DHT22;12035;49.978;8.298;2023-04-25T08:30:04;18.60;48.30
23713;DHT22;12035;49.978;8.298;2023-04-25T08:35:04;18.70;48.70
23713;DHT22;12035;49.978;8.298;2023-04-25T08:40:04;19.00;49.00
23713;DHT22;12035;49.978;8.298;2023-04-25T08:45:03;19.40;48.80
23713;DHT22;12035;49.978;8.298;2023-04-25T08:50:04;19.80;47.00
23713;DHT22;12035;49.978;8.298;2023-04-25T08:55:05;20.20;46.80
23713;DHT22;12035;49.978;8.298;2023-04-25T09:00:05;20.50;45.30
23713;DHT22;12035;49.978;8.298;2023-04-25T09:05:04;20.50;44.60
23713;DHT22;12035;49.978;8.298;2023-04-25T09:10:07;20.20;44.00
23713;DHT22;12035;49.978;8.298;2023-04-25T09:15:06;20.00;43.70
23713;DHT22;12035;49.978;8.298;2023-04-25T09:20:08;19.80;44.60
23713;DHT22;12035;49.978;8.298;2023-04-25T09:25:12;19.70;44.60
23713;DHT22;12035;49.978;8.298;2023-04-25T09:30:11;19.80;44.30
23713;DHT22;12035;49.978;8.298;2023-04-25T09:35:09;19.60;43.80
23713;DHT22;12035;49.978;8.298;2023-04-25T09:40:07;19.40;43.80
23713;DHT22;12035;49.978;8.298;2023-04-25T09:45:09;19.20;44.30
23713;DHT22;12035;49.978;8.298;2023-04-25T09:50:14;19.00;44.20
23713;DHT22;12035;49.978;8.298;2023-04-25T09:55:11;18.90;43.80
23713;DHT22;12035;49.978;8.298;2023-04-25T10:00:12;18.70;44.10
23713;DHT22;12035;49.978;8.298;2023-04-25T10:05:13;18.40;44.00
23713;DHT22;12035;49.978;8.298;2023-04-25T10:10:13;18.20;44.40
23713;DHT22;12035;49.978;8.298;2023-04-25T10:15:12;18.00;44.30
23713;DHT22;12035;49.978;8.298;2023-04-25T10:20:11;17.80;44.50
23713;DHT22;12035;49.978;8.298;2023-04-25T10:25:09;17.70;45.00
23713;DHT22;12035;49.978;8.298;2023-04-25T10:30:13;17.60;45.00
23713;DHT22;12035;49.978;8.298;2023-04-25T10:35:14;17.50;45.60
23713;DHT22;12035;49.978;8.298;2023-04-25T10:40:13;17.50;45.70
23713;DHT22;12035;49.978;8.298;2023-04-25T10:45:14;17.60;45.80
23713;DHT22;12035;49.978;8.298;2023-04-25T10:50:13;17.70;45.60
23713;DHT22;12035;49.978;8.298;2023-04-25T10:55:11;17.70;45.30
23713;DHT22;12035;49.978;8.298;2023-04-25T11:00:13;17.70;45.30
23713;DHT22;12035;49.978;8.298;2023-04-25T11:05:20;17.80;45.10
23713;DHT22;12035;49.978;8.298;2023-04-25T11:10:20;17.70;44.80
23713;DHT22;12035;49.978;8.298;2023-04-25T11:15:29;17.80;45.20
23713;DHT22;12035;49.978;8.298;2023-04-25T11:20:26;17.80;44.70
23713;DHT22;12035;49.978;8.298;2023-04-25T11:25:25;17.80;44.70
23713;DHT22;12035;49.978;8.298;2023-04-25T11:30:24;17.90;44.70
23713;DHT22;12035;49.978;8.298;2023-04-25T11:35:23;18.00;43.80
23713;DHT22;12035;49.978;8.298;2023-04-25T11:40:21;18.00;43.60
23713;DHT22;12035;49.978;8.298;2023-04-25T11:45:18;18.00;43.70
23713;DHT22;12035;49.978;8.298;2023-04-25T11:50:15;17.90;43.90
23713;DHT22;12035;49.978;8.298;2023-04-25T11:55:15;17.90;44.20
23713;DHT22;12035;49.978;8.298;2023-04-25T12:00:14;17.90;44.00
23713;DHT22;12035;49.978;8.298;2023-04-25T12:05:14;17.80;43.40
23713;DHT22;12035;49.978;8.298;2023-04-25T12:10:15;17.70;43.50
23713;DHT22;12035;49.978;8.298;2023-04-25T12:15:16;17.60;43.40
23713;DHT22;12035;49.978;8.298;2023-04-25T12:20:18;17.50;43.80
23713;DHT22;12035;49.978;8.298;2023-04-25T12:25:35;17.50;43.70
23713;DHT22;12035;49.978;8.298;2023-04-25T12:30:52;17.50;43.70
23713;DHT22;12035;49.978;8.298;2023-04-25T12:35:53;17.50;43.30
23713;DHT22;12035;49.978;8.298;2023-04-25T12:40:51;17.50;43.60
23713;DHT22;12035;49.978;8.298;2023-04-25T12:45:49;17.60;43.40
23713;DHT22;12035;49.978;8.298;2023-04-25T12:50:47;17.60;42.60
23713;DHT22;12035;49.978;8.298;2023-04-25T12:55:45;17.70;42.80
23713;DHT22;12035;49.978;8.298;2023-04-25T13:00:45;17.80;42.20
23713;DHT22;12035;49.978;8.298;2023-04-25T13:05:43;17.90;42.20
23713;DHT22;12035;49.978;8.298;2023-04-25T13:10:40;17.80;42.10
23713;DHT22;12035;49.978;8.298;2023-04-25T13:15:37;17.80;41.80
23713;DHT22;12035;49.978;8.298;2023-04-25T13:20:37;17.60;41.60
23713;DHT22;12035;49.978;8.298;2023-04-25T13:25:34;17.50;41.80
23713;DHT22;12035;49.978;8.298;2023-04-25T13:30:31;17.40;42.20
23713;DHT22;12035;49.978;8.298;2023-04-25T13:35:29;17.30;42.40
23713;DHT22;12035;49.978;8.298;2023-04-25T13:40:29;17.40;42.30
23713;DHT22;12035;49.978;8.298;2023-04-25T13:45:26;17.50;41.90
23713;DHT22;12035;49.978;8.298;2023-04-25T13:50:23;17.50;42.00
23713;DHT22;12035;49.978;8.298;2023-04-25T13:55:21;17.50;42.00
23713;DHT22;12035;49.978;8.298;2023-04-25T14:00:20;17.60;41.70
23713;DHT22;12035;49.978;8.298;2023-04-25T14:05:18;17.60;41.30
23713;DHT22;12035;49.978;8.298;2023-04-25T14:10:15;17.60;41.10
23713;DHT22;12035;49.978;8.298;2023-04-25T14:15:12;17.60;40.50
23713;DHT22;12035;49.978;8.298;2023-04-25T14:20:13;17.50;40.50
23713;DHT22;12035;49.978;8.298;2023-04-25T14:25:10;17.40;40.50
23713;DHT22;12035;49.978;8.298;2023-04-25T14:30:09;17.30;40.60
23713;DHT22;12035;49.978;8.298;2023-04-25T14:35:08;17.30;40.70
23713;DHT22;12035;49.978;8.298;2023-04-25T14:40:08;17.20;40.40
23713;DHT22;12035;49.978;8.298;2023-04-25T14:45:09;17.20;40.90
23713;DHT22;12035;49.978;8.298;2023-04-25T14:50:07;17.30;41.00
23713;DHT22;12035;49.978;8.298;2023-04-25T14:55:07;17.40;40.90
23713;DHT22;12035;49.978;8.298;2023-04-25T15:00:06;17.40;40.50
23713;DHT22;12035;49.978;8.298;2023-04-25T15:05:07;17.40;40.70
23713;DHT22;12035;49.978;8.298;2023-04-25T15:10:08;17.30;40.60
23713;DHT22;12035;49.978;8.298;2023-04-25T15:15:10;17.20;40.40
23713;DHT22;12035;49.978;8.298;2023-04-25T15:20:09;17.20;40.50
23713;DHT22;12035;49.978;8.298;2023-04-25T15:25:09;17.20;40.60
23713;DHT22;12035;49.978;8.298;2023-04-25T15:30:08;17.20;40.50
23713;DHT22;12035;49.978;8.298;2023-04-25T15:35:08;17.20;40.50
23713;DHT22;12035;49.978;8.298;2023-04-25T15:40:10;17.20;40.40
23713;DHT22;12035;49.978;8.298;2023-04-25T15:45:09;17.20;40.50
23713;DHT22;12035;49.978;8.298;2023-04-25T15:50:08;17.20;40.40
23713;DHT22;12035;49.978;8.298;2023-04-25T15:55:08;17.20;40.40
23713;DHT22;12035;49.978;8.298;2023-04-25T16:00:08;17.30;40.20
23713;DHT22;12035;49.978;8.298;2023-04-25T16:05:08;17.30;39.90
23713;DHT22;12035;49.978;8.298;2023-04-25T16:10:09;17.40;39.50
23713;DHT22;12035;49.978;8.298;2023-04-25T16:15:07;17.40;39.70
23713;DHT22;12035;49.978;8.298;2023-04-25T16:20:06;17.40;39.00
23713;DHT22;12035;49.978;8.298;2023-04-25T16:25:05;17.40;38.30
23713;DHT22;12035;49.978;8.298;2023-04-25T16:30:08;17.40;38.50
23713;DHT22;12035;49.978;8.298;2023-04-25T16:35:06;17.40;37.80
23713;DHT22;12035;49.978;8.298;2023-04-25T16:40:05;17.40;37.80
23713;DHT22;12035;49.978;8.298;2023-04-25T16:45:06;17.40;37.90
23713;DHT22;12035;49.978;8.298;2023-04-25T16:50:06;17.40;37.90
23713;DHT22;12035;49.978;8.298;2023-04-25T16:55:04;17.40;38.20
23713;DHT22;12035;49.978;8.298;2023-04-25T17:00:04;17.30;37.60
23713;DHT22;12035;49.978;8.298;2023-04-25T17:05:05;17.30;37.80
23713;DHT22;12035;49.978;8.298;2023-04-25T17:10:03;17.20;37.80
23713;DHT22;12035;49.978;8.298;2023-04-25T17:15:01;17.00;37.60
23713;DHT22;12035;49.978;8.298;2023-04-25T17:20:00;16.80;37.90
23713;DHT22;12035;49.978;8.298;2023-04-25T17:24:58;16.70;37.90
23713;DHT22;12035;49.978;8.298;2023-04-25T17:29:55;16.60;38.80
23713;DHT22;12035;49.978;8.298;2023-04-25T17:34:52;16.40;38.50
23713;DHT22;12035;49.978;8.298;2023-04-25T17:39:51;16.30;38.80
23713;DHT22;12035;49.978;8.298;2023-04-25T17:44:49;16.30;39.00
23713;DHT22;12035;49.978;8.298;2023-04-25T17:49:46;16.20;39.20
23713;DHT22;12035;49.978;8.298;2023-04-25T17:54:43;16.20;39.50
23713;DHT22;12035;49.978;8.298;2023-04-25T17:59:42;16.10;39.60
23713;DHT22;12035;49.978;8.298;2023-04-25T18:04:42;16.10;39.90
23713;DHT22;12035;49.978;8.298;2023-04-25T18:09:39;16.00;40.00
23713;DHT22;12035;49.978;8.298;2023-04-25T18:14:36;16.00;40.10
23713;DHT22;12035;49.978;8.298;2023-04-25T18:19:35;15.90;40.30
23713;DHT22;12035;49.978;8.298;2023-04-25T18:24:33;15.90;40.50
23713;DHT22;12035;49.978;8.298;2023-04-25T18:29:30;15.80;40.60
23713;DHT22;12035;49.978;8.298;2023-04-25T18:34:27;15.80;40.80
23713;DHT22;12035;49.978;8.298;2023-04-25T18:39:25;15.70;40.70
23713;DHT22;12035;49.978;8.298;2023-04-25T18:44:22;15.70;40.60
23713;DHT22;12035;49.978;8.298;2023-04-25T18:49:20;15.60;40.60
23713;DHT22;12035;49.978;8.298;2023-04-25T18:54:17;15.50;40.40
23713;DHT22;12035;49.978;8.298;2023-04-25T18:59:16;15.40;40.50
23713;DHT22;12035;49.978;8.298;2023-04-25T19:04:14;15.30;40.30
23713;DHT22;12035;49.978;8.298;2023-04-25T19:09:12;15.20;40.40
23713;DHT22;12035;49.978;8.298;2023-04-25T19:14:10;15.10;40.40
23713;DHT22;12035;49.978;8.298;2023-04-25T19:19:11;14.90;40.50
23713;DHT22;12035;49.978;8.298;2023-04-25T19:24:08;14.90;40.60
23713;DHT22;12035;49.978;8.298;2023-04-25T19:29:07;14.80;40.70
23713;DHT22;12035;49.978;8.298;2023-04-25T19:34:07;14.70;40.80
23713;DHT22;12035;49.978;8.298;2023-04-25T19:39:06;14.70;41.10
23713;DHT22;12035;49.978;8.298;2023-04-25T19:44:05;14.60;41.20
23713;DHT22;12035;49.978;8.298;2023-04-25T19:49:03;14.60;41.40
23713;DHT22;12035;49.978;8.298;2023-04-25T19:54:01;14.60;41.50
23713;DHT22;12035;49.978;8.298;2023-04-25T19:59:00;14.60;41.50
23713;DHT22;12035;49.978;8.298;2023-04-25T20:03:57;14.60;41.70
23713;DHT22;12035;49.978;8.298;2023-04-25T20:08:55;14.60;41.80
23713;DHT22;12035;49.978;8.298;2023-04-25T20:13:52;14.50;41.80
23713;DHT22;12035;49.978;8.298;2023-04-25T20:18:50;14.50;41.90
23713;DHT22;12035;49.978;8.298;2023-04-25T20:23:48;14.50;41.90
23713;DHT22;12035;49.978;8.298;2023-04-25T20:28:45;14.50;42.00
23713;DHT22;12035;49.978;8.298;2023-04-25T20:33:42;14.40;42.10
23713;DHT22;12035;49.978;8.298;2023-04-25T20:38:41;14.40;42.10
23713;DHT22;12035;49.978;8.298;2023-04-25T20:43:38;14.30;42.10
23713;DHT22;12035;49.978;8.298;2023-04-25T20:48:36;14.20;42.20
23713;DHT22;12035;49.978;8.298;2023-04-25T20:53:33;14.10;42.40
23713;DHT22;12035;49.978;8.298;2023-04-25T20:58:32;13.90;42.40
23713;DHT22;12035;49.978;8.298;2023-04-25T21:03:29;13.90;42.60
23713;DHT22;12035;49.978;8.298;2023-04-25T21:08:26;13.90;42.70
23713;DHT22;12035;49.978;8.298;2023-04-25T21:13:23;13.90;43.00
23713;DHT22;12035;49.978;8.298;2023-04-25T21:18:25;13.80;43.10
23713;DHT22;12035;49.978;8.298;2023-04-25T21:23:22;13.70;43.30
23713;DHT22;12035;49.978;8.298;2023-04-25T21:28:19;13.70;43.50
23713;DHT22;12035;49.978;8.298;2023-04-25T21:33:16;13.60;43.60
23713;DHT22;12035;49.978;8.298;2023-04-25T21:38:15;13.60;43.80
23713;DHT22;12035;49.978;8.298;2023-04-25T21:43:12;13.50;43.90
23713;DHT22;12035;49.978;8.298;2023-04-25T21:48:09;13.50;43.90
23713;DHT22;12035;49.978;8.298;2023-04-25T21:53:07;13.40;44.00
23713;DHT22;12035;49.978;8.298;2023-04-25T21:58:08;13.40;44.20
23713;DHT22;12035;49.978;8.298;2023-04-25T22:03:06;13.20;44.40
23713;DHT22;12035;49.978;8.298;2023-04-25T22:08:03;13.10;44.40
23713;DHT22;12035;49.978;8.298;2023-04-25T22:13:00;13.10;44.70
23713;DHT22;12035;49.978;8.298;2023-04-25T22:17:59;12.90;44.70
23713;DHT22;12035;49.978;8.298;2023-04-25T22:22:58;12.80;44.80
23713;DHT22;12035;49.978;8.298;2023-04-25T22:27:56;12.80;44.90
23713;DHT22;12035;49.978;8.298;2023-04-25T22:32:53;12.70;45.10
23713;DHT22;12035;49.978;8.298;2023-04-25T22:37:52;12.70;45.10
23713;DHT22;12035;49.978;8.298;2023-04-25T22:42:49;12.60;45.30
23713;DHT22;12035;49.978;8.298;2023-04-25T22:47:46;12.50;45.90
23713;DHT22;12035;49.978;8.298;2023-04-25T22:52:44;12.40;45.40
23713;DHT22;12035;49.978;8.298;2023-04-25T22:57:43;12.30;45.60
23713;DHT22;12035;49.978;8.298;2023-04-25T23:02:42;12.30;45.80
23713;DHT22;12035;49.978;8.298;2023-04-25T23:07:40;12.20;45.90
23713;DHT22;12035;49.978;8.298;2023-04-25T23:12:39;12.20;46.10
23713;DHT22;12035;49.978;8.298;2023-04-25T23:17:37;12.10;46.20
23713;DHT22;12035;49.978;8.298;2023-04-25T23:22:35;12.10;46.40
23713;DHT22;12035;49.978;8.298;2023-04-25T23:27:32;12.10;46.70
23713;DHT22;12035;49.978;8.298;2023-04-25T23:32:29;12.00;46.60
23713;DHT22;12035;49.978;8.298;2023-04-25T23:37:28;12.00;46.60
23713;DHT22;12035;49.978;8.298;2023-04-25T23:42:26;12.00;46.80
23713;DHT22;12035;49.978;8.298;2023-04-25T23:47:23;12.00;46.90
23713;DHT22;12035;49.978;8.298;2023-04-25T23:52:20;12.00;47.00
23713;DHT22;12035;49.978;8.298;2023-04-25T23:57:19;11.90;47.00
